createdAt,value
2022-08-12T00:00:37.261Z,26.00
2022-08-12T00:03:23.962Z,26.20
2022-08-12T00:06:10.562Z,26.30
2022-08-12T00:08:58.008Z,26.20
2022-08-12T00:11:45.754Z,26.20
2022-08-12T00:14:32.483Z,26.30
2022-08-12T00:17:22.740Z,26.10
2022-08-12T00:20:10.261Z,26.20
2022-08-12T00:22:59.333Z,26.30
2022-08-12T00:26:21.875Z,26.30
2022-08-12T00:29:02.118Z,26.40
2022-08-12T00:31:48.402Z,26.30
2022-08-12T00:34:36.148Z,26.10
2022-08-12T00:37:23.295Z,26.10
2022-08-12T00:40:11.535Z,26.40
2022-08-12T00:42:41.998Z,26.50
2022-08-12T00:45:11.945Z,26.60
2022-08-12T00:47:41.895Z,26.40
2022-08-12T00:50:18.791Z,26.30
2022-08-12T00:52:48.463Z,26.10
2022-08-12T00:55:18.821Z,26.10
2022-08-12T00:57:49.833Z,26.10
2022-08-12T01:00:21.729Z,25.80
2022-08-12T01:02:53.095Z,25.50
2022-08-12T01:05:43.316Z,25.20
2022-08-12T01:08:44.835Z,25.00
2022-08-12T01:11:33.241Z,24.90
2022-08-12T01:14:03.433Z,24.60
2022-08-12T01:16:32.697Z,24.80
2022-08-12T01:19:03.807Z,24.70
2022-08-12T01:22:11.046Z,24.50
2022-08-12T01:24:55.036Z,24.40
2022-08-12T01:27:25.877Z,24.30
2022-08-12T01:29:56.000Z,24.40
2022-08-12T01:32:28.204Z,24.30
2022-08-12T01:35:08.586Z,24.50
2022-08-12T01:37:56.094Z,24.40
2022-08-12T01:40:35.755Z,24.50
2022-08-12T01:43:09.888Z,24.30
2022-08-12T01:45:47.933Z,24.30
2022-08-12T01:48:26.424Z,24.40
2022-08-12T01:51:06.428Z,24.40
2022-08-12T01:53:48.649Z,24.40
2022-08-12T01:56:26.095Z,24.40
2022-08-12T01:59:16.319Z,24.50
2022-08-12T02:01:47.973Z,24.30
2022-08-12T02:04:43.415Z,24.30
2022-08-12T02:07:48.923Z,24.20
2022-08-12T02:10:50.004Z,24.40
2022-08-12T02:13:49.452Z,24.10
2022-08-12T02:16:33.516Z,23.60
2022-08-12T02:19:22.267Z,23.20
2022-08-12T02:22:06.501Z,23.00
2022-08-12T02:24:38.760Z,23.10
2022-08-12T02:27:09.070Z,23.10
2022-08-12T02:29:42.040Z,22.90
2022-08-12T02:32:11.425Z,22.90
2022-08-12T02:34:40.872Z,22.90
2022-08-12T02:37:10.800Z,22.80
2022-08-12T02:39:46.023Z,22.90
2022-08-12T02:42:17.592Z,22.90
2022-08-12T02:44:52.473Z,22.90
2022-08-12T02:48:00.077Z,23.10
2022-08-12T02:50:16.055Z,23.10
2022-08-12T02:52:46.334Z,23.10
2022-08-12T02:55:28.806Z,23.20
2022-08-12T02:58:12.081Z,23.00
2022-08-12T03:00:44.804Z,22.90
2022-08-12T03:03:15.184Z,23.20
2022-08-12T03:05:52.603Z,23.10
2022-08-12T03:08:32.423Z,23.00
2022-08-12T03:11:14.282Z,22.90
2022-08-12T03:13:47.762Z,22.70
2022-08-12T03:16:18.843Z,22.70
2022-08-12T03:18:48.082Z,22.70
2022-08-12T03:21:55.368Z,22.80
2022-08-12T03:24:09.863Z,22.60
2022-08-12T03:26:39.261Z,22.90
2022-08-12T03:29:08.902Z,22.90
2022-08-12T03:31:39.411Z,22.90
2022-08-12T03:34:10.312Z,22.80
2022-08-12T03:36:42.114Z,22.40
2022-08-12T03:39:35.841Z,22.40
2022-08-12T03:42:22.059Z,22.30
2022-08-12T03:45:16.837Z,22.70
2022-08-12T03:48:13.364Z,22.70
2022-08-12T03:51:06.503Z,22.90
2022-08-12T03:53:53.639Z,23.00
2022-08-12T03:56:39.742Z,23.10
2022-08-12T03:59:27.691Z,23.10
2022-08-12T04:01:58.677Z,23.00
2022-08-12T04:04:34.889Z,23.10
2022-08-12T04:07:06.786Z,23.10
2022-08-12T04:09:37.077Z,23.00
2022-08-12T04:12:26.057Z,23.10
2022-08-12T04:14:57.204Z,22.90
2022-08-12T04:17:28.447Z,23.00
2022-08-12T04:20:00.436Z,22.90
2022-08-12T04:22:31.120Z,23.10
2022-08-12T04:25:02.145Z,23.00
2022-08-12T04:27:32.887Z,23.10
2022-08-12T04:30:21.225Z,23.20
2022-08-12T04:32:53.836Z,23.30
2022-08-12T04:35:24.542Z,23.30
2022-08-12T04:37:59.314Z,23.20
2022-08-12T04:40:32.768Z,23.40
2022-08-12T04:43:02.427Z,23.40
2022-08-12T04:45:33.184Z,23.30
2022-08-12T04:48:02.907Z,23.30
2022-08-12T04:50:36.950Z,23.40
2022-08-12T04:53:08.959Z,23.50
2022-08-12T04:55:39.863Z,23.40
2022-08-12T04:58:09.008Z,23.10
2022-08-12T05:00:39.295Z,23.30
2022-08-12T05:03:09.247Z,23.50
2022-08-12T05:05:40.899Z,23.60
2022-08-12T05:08:13.554Z,23.20
2022-08-12T05:10:42.797Z,23.00
2022-08-12T05:13:15.519Z,23.00
2022-08-12T05:16:04.026Z,23.50
2022-08-12T05:18:35.079Z,23.50
2022-08-12T05:21:10.632Z,23.50
2022-08-12T05:23:40.757Z,23.40
2022-08-12T05:26:10.194Z,23.60
2022-08-12T05:28:39.287Z,23.70
2022-08-12T05:31:08.344Z,23.70
2022-08-12T05:33:40.483Z,23.70
2022-08-12T05:36:14.175Z,23.20
2022-08-12T05:38:59.589Z,23.10
2022-08-12T05:41:30.714Z,23.10
2022-08-12T05:44:01.453Z,22.70
2022-08-12T05:46:32.731Z,22.70
2022-08-12T05:49:02.397Z,22.80
2022-08-12T05:51:40.303Z,22.80
2022-08-12T05:54:12.374Z,22.50
2022-08-12T05:56:42.159Z,22.30
2022-08-12T05:59:12.778Z,22.10
2022-08-12T06:02:12.057Z,21.90
2022-08-12T06:04:33.642Z,21.80
2022-08-12T06:08:00.331Z,21.90
2022-08-12T06:09:58.360Z,21.80
2022-08-12T06:12:27.759Z,22.20
2022-08-12T06:14:56.721Z,22.20
2022-08-12T06:17:25.707Z,22.40
2022-08-12T06:20:27.306Z,22.50
2022-08-12T06:22:46.595Z,22.70
2022-08-12T06:25:21.871Z,22.70
2022-08-12T06:28:07.669Z,22.80
2022-08-12T06:30:39.439Z,22.90
2022-08-12T06:33:55.028Z,23.00
2022-08-12T06:35:59.074Z,23.10
2022-08-12T06:38:30.832Z,23.00
2022-08-12T06:41:19.228Z,22.90
2022-08-12T06:44:06.722Z,23.00
2022-08-12T06:46:39.060Z,23.00
2022-08-12T06:49:12.552Z,23.10
2022-08-12T06:51:42.133Z,23.00
2022-08-12T06:54:31.215Z,23.20
2022-08-12T06:57:04.903Z,23.40
2022-08-12T06:59:51.261Z,23.40
2022-08-12T07:02:20.805Z,23.70
2022-08-12T07:04:49.966Z,23.70
2022-08-12T07:07:18.823Z,23.90
2022-08-12T07:10:04.540Z,23.80
2022-08-12T07:12:37.061Z,24.00
2022-08-12T07:15:06.924Z,24.10
2022-08-12T07:17:37.966Z,24.30
2022-08-12T07:20:29.898Z,24.40
2022-08-12T07:22:59.054Z,24.40
2022-08-12T07:25:40.453Z,24.50
2022-08-12T07:28:14.121Z,24.50
2022-08-12T07:30:49.416Z,24.60
2022-08-12T07:33:22.499Z,24.50
2022-08-12T07:35:54.663Z,24.60
2022-08-12T07:38:29.223Z,24.50
2022-08-12T07:41:04.151Z,24.60
2022-08-12T07:43:33.889Z,24.70
2022-08-12T07:46:05.272Z,24.60
2022-08-12T07:48:39.165Z,24.90
2022-08-12T07:51:08.876Z,24.90
2022-08-12T07:53:50.190Z,25.00
2022-08-12T07:56:31.468Z,25.30
2022-08-12T07:59:01.328Z,25.40
2022-08-12T08:01:30.821Z,25.40
2022-08-12T08:04:19.359Z,25.40
2022-08-12T08:06:50.009Z,25.50
2022-08-12T08:09:22.606Z,25.50
2022-08-12T08:12:18.656Z,25.70
2022-08-12T08:14:50.161Z,25.60
2022-08-12T08:17:19.377Z,25.90
2022-08-12T08:20:01.979Z,25.80
2022-08-12T08:22:41.635Z,26.30
2022-08-12T08:25:34.880Z,26.60
2022-08-12T08:28:06.029Z,26.80
2022-08-12T08:30:36.327Z,26.90
2022-08-12T08:33:23.081Z,26.40
2022-08-12T08:35:54.930Z,26.10
2022-08-12T08:38:32.011Z,26.20
2022-08-12T08:42:19.266Z,26.10
2022-08-12T08:44:23.571Z,26.50
2022-08-12T08:46:55.817Z,26.50
2022-08-12T08:49:25.288Z,26.80
2022-08-12T08:51:54.110Z,26.70
2022-08-12T08:54:24.887Z,26.80
2022-08-12T08:56:53.956Z,26.50
2022-08-12T08:59:24.317Z,26.90
2022-08-12T09:01:53.258Z,27.10
2022-08-12T09:05:12.130Z,27.10
2022-08-12T09:10:04.238Z,27.20
2022-08-12T09:12:54.328Z,27.20
2022-08-12T09:15:35.743Z,27.60
2022-08-12T09:20:55.906Z,27.80
2022-08-12T09:23:58.523Z,28.30
2022-08-12T09:26:19.165Z,28.40
2022-08-12T09:28:53.076Z,28.50
2022-08-12T09:32:03.614Z,28.40
2022-08-12T09:34:26.143Z,28.70
2022-08-12T09:37:02.786Z,28.50
2022-08-12T09:40:06.163Z,28.00
2022-08-12T09:46:06.582Z,29.10
2022-08-12T09:48:44.468Z,28.50
2022-08-12T09:51:21.670Z,28.00
2022-08-12T09:54:33.715Z,27.80
2022-08-12T09:57:01.130Z,27.80
2022-08-12T10:00:16.633Z,27.70
2022-08-12T10:02:44.470Z,27.40
2022-08-12T10:05:13.920Z,27.80
2022-08-12T10:07:49.385Z,28.30
2022-08-12T10:10:24.449Z,28.50
2022-08-12T10:13:14.333Z,29.00
2022-08-12T10:16:02.504Z,29.50
2022-08-12T10:18:35.291Z,29.30
2022-08-12T10:21:10.690Z,29.30
2022-08-12T10:23:45.855Z,28.10
2022-08-12T10:26:38.995Z,28.30
2022-08-12T10:30:01.898Z,28.00
2022-08-12T10:32:45.020Z,28.20
2022-08-12T10:35:10.263Z,29.40
2022-08-12T10:38:38.615Z,29.40
2022-08-12T10:40:33.465Z,28.70
2022-08-12T10:43:20.458Z,29.00
2022-08-12T10:45:53.492Z,28.40
2022-08-12T10:48:34.257Z,28.60
2022-08-12T10:52:04.027Z,28.70
2022-08-12T10:54:00.983Z,28.70
2022-08-12T10:56:34.698Z,29.50
2022-08-12T10:59:05.601Z,29.40
2022-08-12T11:04:17.794Z,28.40
2022-08-12T11:04:45.122Z,28.80
2022-08-12T11:08:35.017Z,29.20
2022-08-12T11:10:10.389Z,29.30
2022-08-12T11:12:57.778Z,28.90
2022-08-12T11:16:04.117Z,28.50
2022-08-12T11:18:19.062Z,28.10
2022-08-12T11:20:50.610Z,28.20
2022-08-12T11:23:24.602Z,27.90
2022-08-12T11:26:07.570Z,28.10
2022-08-12T11:28:38.878Z,28.10
2022-08-12T11:31:14.094Z,28.10
2022-08-12T11:34:04.320Z,28.10
2022-08-12T11:36:33.323Z,28.00
2022-08-12T11:39:12.404Z,28.10
2022-08-12T11:41:43.219Z,28.20
2022-08-12T11:44:36.734Z,28.30
2022-08-12T11:47:09.676Z,28.50
2022-08-12T11:49:38.759Z,28.50
2022-08-12T11:52:27.928Z,28.50
2022-08-12T11:54:56.966Z,28.50
2022-08-12T11:58:40.593Z,28.50
2022-08-12T12:02:02.774Z,28.70
2022-08-12T12:03:06.317Z,29.10
2022-08-12T12:05:41.675Z,29.50
2022-08-12T12:08:38.612Z,29.40
2022-08-12T12:11:10.958Z,29.20
2022-08-12T12:14:08.298Z,29.50
2022-08-12T12:16:30.785Z,30.40
2022-08-12T12:19:02.192Z,30.50
2022-08-12T12:21:48.482Z,29.90
2022-08-12T12:24:21.246Z,30.50
2022-08-12T12:27:00.101Z,30.10
2022-08-12T12:30:18.216Z,30.40
2022-08-12T12:32:29.373Z,30.50
2022-08-12T12:35:14.003Z,31.00
2022-08-12T12:38:05.013Z,30.50
2022-08-12T12:40:45.400Z,30.80
2022-08-12T12:43:15.089Z,30.80
2022-08-12T12:45:47.339Z,29.80
2022-08-12T12:48:18.205Z,29.20
2022-08-12T12:51:09.572Z,28.70
2022-08-12T12:54:06.335Z,28.60
2022-08-12T12:56:33.883Z,28.30
2022-08-12T12:59:06.243Z,28.40
2022-08-12T13:01:41.751Z,28.10
2022-08-12T13:04:14.460Z,28.10
2022-08-12T13:06:43.564Z,28.00
2022-08-12T13:09:13.567Z,28.00
2022-08-12T13:11:44.503Z,27.70
2022-08-12T13:14:28.764Z,27.90
2022-08-12T13:17:02.580Z,27.90
2022-08-12T13:19:45.131Z,28.00
2022-08-12T13:22:23.768Z,27.80
2022-08-12T13:24:56.181Z,27.90
2022-08-12T13:27:35.136Z,28.00
2022-08-12T13:30:10.977Z,28.00
2022-08-12T13:32:56.524Z,27.90
2022-08-12T13:35:33.520Z,27.90
2022-08-12T13:38:26.600Z,27.70
2022-08-12T13:40:58.688Z,27.70
2022-08-12T13:43:41.127Z,27.90
2022-08-12T13:46:11.953Z,27.80
2022-08-12T13:48:44.710Z,27.70
2022-08-12T13:51:14.546Z,27.90
2022-08-12T13:53:57.801Z,27.90
2022-08-12T13:56:34.733Z,27.90
2022-08-12T13:59:08.499Z,27.80
2022-08-12T14:01:40.355Z,27.70
2022-08-12T14:04:12.388Z,27.70
2022-08-12T14:06:41.863Z,27.70
2022-08-12T14:09:17.483Z,27.70
2022-08-12T14:11:58.364Z,27.50
2022-08-12T14:14:31.652Z,27.30
2022-08-12T14:17:10.338Z,27.00
2022-08-12T14:20:02.214Z,26.60
2022-08-12T14:22:32.222Z,26.80
2022-08-12T14:25:02.716Z,29.20
2022-08-12T14:28:03.978Z,27.20
2022-08-12T14:30:28.879Z,27.50
2022-08-12T14:33:03.043Z,27.30
2022-08-12T14:35:41.000Z,27.20
2022-08-12T14:38:16.433Z,27.30
2022-08-12T14:40:45.946Z,27.10
2022-08-12T14:43:15.540Z,27.60
2022-08-12T14:45:49.207Z,27.70
2022-08-12T14:48:24.507Z,27.70
2022-08-12T14:52:10.295Z,27.70
2022-08-12T14:57:06.020Z,26.90
2022-08-12T14:59:56.310Z,26.80
2022-08-12T15:02:29.794Z,26.80
2022-08-12T15:05:00.908Z,27.70
2022-08-12T15:07:49.493Z,28.20
2022-08-12T15:10:31.993Z,28.50
2022-08-12T15:13:07.303Z,29.40
2022-08-12T15:15:43.709Z,29.20
2022-08-12T15:18:21.630Z,28.80
2022-08-12T15:20:52.172Z,28.80
2022-08-12T15:23:23.560Z,28.10
2022-08-12T15:26:02.963Z,28.00
2022-08-12T15:28:34.433Z,28.20
2022-08-12T15:31:09.428Z,28.90
2022-08-12T15:33:51.156Z,27.50
2022-08-12T15:36:53.599Z,27.40
2022-08-12T15:39:16.688Z,26.70
2022-08-12T15:41:49.613Z,26.40
2022-08-12T15:44:38.489Z,25.80
2022-08-12T15:47:10.153Z,25.70
2022-08-12T15:49:54.963Z,26.10
2022-08-12T15:52:29.252Z,27.40
2022-08-12T15:55:05.030Z,26.50
2022-08-12T15:57:35.654Z,25.90
2022-08-12T16:00:09.317Z,25.70
2022-08-12T16:02:57.970Z,25.50
2022-08-12T16:06:12.798Z,25.70
2022-08-12T16:08:27.410Z,25.70
2022-08-12T16:10:58.833Z,25.40
2022-08-12T16:13:34.751Z,25.40
2022-08-12T16:16:23.171Z,25.30
2022-08-12T16:18:59.616Z,25.50
2022-08-12T16:21:51.882Z,25.60
2022-08-12T16:24:21.829Z,25.60
2022-08-12T16:26:54.462Z,25.70
2022-08-12T16:29:38.523Z,27.30
2022-08-12T16:32:24.215Z,26.80
2022-08-12T16:34:55.801Z,26.40
2022-08-12T16:38:04.721Z,25.90
2022-08-12T16:40:15.242Z,25.80
2022-08-12T16:43:01.523Z,25.60
2022-08-12T16:46:05.661Z,25.50
2022-08-12T16:48:35.042Z,25.70
2022-08-12T16:51:09.251Z,25.80
2022-08-12T16:53:44.396Z,26.00
2022-08-12T16:56:16.878Z,26.10
2022-08-12T16:58:48.510Z,26.10
2022-08-12T17:01:21.305Z,25.90
2022-08-12T17:04:09.122Z,25.70
2022-08-12T17:06:41.737Z,25.60
2022-08-12T17:09:17.225Z,25.60
2022-08-12T17:11:49.080Z,25.60
2022-08-12T17:14:23.704Z,25.50
2022-08-12T17:16:55.247Z,25.70
2022-08-12T17:20:12.140Z,25.80
2022-08-12T17:22:21.468Z,25.80
2022-08-12T17:24:55.508Z,25.80
2022-08-12T17:27:26.216Z,25.60
2022-08-12T17:30:02.630Z,25.60
2022-08-12T17:32:33.794Z,25.60
2022-08-12T17:35:21.066Z,25.70
2022-08-12T17:37:50.959Z,25.70
2022-08-12T17:40:36.212Z,25.70
2022-08-12T17:43:52.220Z,25.40
2022-08-12T17:46:03.066Z,25.30
2022-08-12T17:48:38.675Z,25.40
2022-08-12T17:51:15.442Z,25.40
2022-08-12T17:54:06.358Z,25.30
2022-08-12T17:56:37.557Z,25.30
2022-08-12T17:59:09.791Z,25.10
2022-08-12T18:01:46.106Z,25.10
2022-08-12T18:04:23.240Z,25.20
2022-08-12T18:07:06.310Z,25.20
2022-08-12T18:09:38.272Z,25.20
2022-08-12T18:12:26.648Z,25.00
2022-08-12T18:14:58.377Z,24.90
2022-08-12T18:17:29.879Z,24.80
2022-08-12T18:20:07.122Z,24.80
2022-08-12T18:22:36.554Z,24.80
2022-08-12T18:26:16.131Z,24.90
2022-08-12T18:28:16.866Z,24.90
2022-08-12T18:30:53.442Z,24.80
2022-08-12T18:33:26.760Z,25.10
2022-08-12T18:35:58.250Z,24.90
2022-08-12T18:38:28.376Z,24.80
2022-08-12T18:41:22.550Z,24.90
2022-08-12T18:43:59.893Z,24.90
2022-08-12T18:46:55.277Z,24.90
2022-08-12T18:49:33.402Z,24.80
2022-08-12T18:52:07.695Z,24.80
2022-08-12T18:54:49.214Z,24.80
2022-08-12T18:58:06.067Z,24.70
2022-08-12T19:00:20.867Z,24.90
2022-08-12T19:02:53.891Z,24.90
2022-08-12T19:05:54.084Z,24.90
2022-08-12T19:08:14.560Z,24.90
2022-08-12T19:10:50.562Z,24.80
2022-08-12T19:13:39.499Z,24.70
2022-08-12T19:16:12.785Z,24.60
2022-08-12T19:18:44.529Z,24.60
2022-08-12T19:21:20.268Z,24.50
2022-08-12T19:24:11.835Z,24.50
2022-08-12T19:26:42.665Z,24.40
2022-08-12T19:29:12.599Z,24.40
2022-08-12T19:31:58.266Z,24.50
2022-08-12T19:37:27.104Z,24.40
2022-08-12T19:40:09.228Z,24.60
2022-08-12T19:43:00.771Z,24.60
2022-08-12T19:45:43.352Z,24.50
2022-08-12T19:48:21.219Z,24.60
2022-08-12T19:50:52.351Z,24.50
2022-08-12T19:53:24.276Z,24.60
2022-08-12T19:55:55.249Z,24.50
2022-08-12T19:58:25.265Z,24.50
2022-08-12T20:00:55.579Z,24.50
2022-08-12T20:03:39.415Z,24.60
2022-08-12T20:06:13.981Z,24.60
2022-08-12T20:08:56.000Z,24.40
2022-08-12T20:12:13.643Z,24.30
2022-08-12T20:14:19.532Z,24.20
2022-08-12T20:16:57.294Z,24.20
2022-08-12T20:20:01.175Z,24.10
2022-08-12T20:22:31.378Z,24.20
2022-08-12T20:25:10.681Z,23.90
2022-08-12T20:28:05.551Z,23.90
2022-08-12T20:30:52.693Z,23.70
2022-08-12T20:33:50.135Z,23.50
2022-08-12T20:36:41.189Z,23.60
2022-08-12T20:39:17.507Z,23.50
2022-08-12T20:42:07.170Z,23.50
2022-08-12T20:44:39.800Z,23.40
2022-08-12T20:47:16.664Z,23.40
2022-08-12T20:49:55.578Z,23.30
2022-08-12T20:52:30.498Z,23.50
2022-08-12T20:55:03.723Z,23.30
2022-08-12T20:57:37.474Z,23.30
2022-08-12T21:00:14.444Z,23.40
2022-08-12T21:02:50.166Z,23.40
2022-08-12T21:06:09.645Z,23.40
2022-08-12T21:08:26.797Z,23.60
2022-08-12T21:10:58.873Z,23.60
2022-08-12T21:13:39.257Z,23.50
2022-08-12T21:16:11.639Z,23.40
2022-08-12T21:18:41.050Z,23.40
2022-08-12T21:21:23.768Z,23.40
2022-08-12T21:23:56.518Z,23.50
2022-08-12T21:26:28.507Z,23.60
2022-08-12T21:29:01.634Z,23.50
2022-08-12T21:32:37.362Z,23.50
2022-08-12T21:34:29.265Z,23.50
2022-08-12T21:37:12.967Z,23.50
2022-08-12T21:39:46.316Z,23.30
2022-08-12T21:42:27.899Z,23.40
2022-08-12T21:45:47.004Z,23.40
2022-08-12T21:47:53.295Z,23.20
2022-08-12T21:50:22.462Z,23.40
2022-08-12T21:52:58.243Z,23.40
2022-08-12T21:55:27.498Z,23.20
2022-08-12T21:58:02.882Z,23.10
2022-08-12T22:00:35.089Z,23.00
2022-08-12T22:04:02.043Z,23.10
2022-08-12T22:06:19.983Z,23.20
2022-08-12T22:08:57.971Z,23.30
2022-08-12T22:11:42.281Z,23.30
2022-08-12T22:14:21.869Z,23.10
2022-08-12T22:16:56.728Z,23.10
2022-08-12T22:19:26.700Z,23.00
2022-08-12T22:21:58.827Z,23.00
2022-08-12T22:24:33.330Z,23.10
2022-08-12T22:27:18.167Z,23.20
2022-08-12T22:30:16.118Z,23.30
2022-08-12T22:32:50.192Z,23.30
2022-08-12T22:35:56.752Z,23.30
2022-08-12T22:38:26.766Z,23.40
2022-08-12T22:41:00.841Z,23.30
2022-08-12T22:44:01.076Z,23.40
2022-08-12T22:46:53.138Z,23.30
2022-08-12T22:49:26.149Z,23.20
2022-08-12T22:52:18.267Z,23.20
2022-08-12T22:55:02.770Z,23.20
2022-08-12T22:57:53.657Z,23.00
2022-08-12T23:00:27.862Z,22.80
2022-08-12T23:03:02.761Z,22.60
2022-08-12T23:05:36.758Z,22.70
2022-08-12T23:08:29.626Z,22.50
2022-08-12T23:10:59.604Z,22.80
2022-08-12T23:13:45.990Z,22.90
2022-08-12T23:16:28.465Z,22.90
2022-08-12T23:19:01.725Z,23.00
2022-08-12T23:22:05.793Z,22.90
2022-08-12T23:24:38.820Z,22.70
2022-08-12T23:27:44.362Z,22.60
2022-08-12T23:30:18.818Z,22.30
2022-08-12T23:32:50.887Z,22.10
2022-08-12T23:35:23.996Z,22.10
2022-08-12T23:38:30.170Z,22.00
2022-08-12T23:41:02.120Z,22.00
2022-08-12T23:43:39.679Z,22.10
2022-08-12T23:46:11.660Z,22.00
2022-08-12T23:48:41.141Z,21.80
2022-08-12T23:51:22.549Z,21.80
2022-08-12T23:53:56.502Z,21.90
2022-08-12T23:56:34.042Z,21.80
2022-08-12T23:59:04.459Z,21.80
